sensor_id;sensor_type;location;lat;lon;timestamp;pressure;altitude;pressure_sealevel;temperature;humidity
47761;BME280;33524;55.434;38.520;2022-12-18T00:00:11;99645.88;;;-5.29;100.00
47761;BME280;33524;55.434;38.520;2022-12-18T00:02:39;99648.78;;;-5.04;100.00
47761;BME280;33524;55.434;38.520;2022-12-18T00:05:08;99642.87;;;-5.08;100.00
47761;BME280;33524;55.434;38.520;2022-12-18T00:07:36;99640.31;;;-5.08;100.00
47761;BME280;33524;55.434;38.520;2022-12-18T00:10:05;99639.56;;;-5.13;100.00
47761;BME280;33524;55.434;38.520;2022-12-18T00:12:33;99632.88;;;-5.20;100.00
47761;BME280;33524;55.434;38.520;2022-12-18T00:15:01;99629.28;;;-5.13;100.00
47761;BME280;33524;55.434;38.520;2022-12-18T00:17:29;99627.28;;;-4.98;100.00
47761;BME280;33524;55.434;38.520;2022-12-18T00:19:58;99610.19;;;-5.38;100.00
47761;BME280;33524;55.434;38.520;2022-12-18T00:22:25;99623.00;;;-5.38;100.00
47761;BME280;33524;55.434;38.520;2022-12-18T00:24:53;99615.38;;;-5.01;100.00
47761;BME280;33524;55.434;38.520;2022-12-18T00:27:22;99608.31;;;-4.90;100.00
47761;BME280;33524;55.434;38.520;2022-12-18T00:29:50;99600.41;;;-5.21;100.00
47761;BME280;33524;55.434;38.520;2022-12-18T00:32:18;99596.44;;;-4.56;100.00
47761;BME280;33524;55.434;38.520;2022-12-18T00:34:46;99594.94;;;-5.04;100.00
47761;BME280;33524;55.434;38.520;2022-12-18T00:37:14;99600.16;;;-5.09;100.00
47761;BME280;33524;55.434;38.520;2022-12-18T00:39:50;99604.53;;;-4.73;100.00
47761;BME280;33524;55.434;38.520;2022-12-18T00:42:18;99601.38;;;-4.86;100.00
47761;BME280;33524;55.434;38.520;2022-12-18T00:45:05;99602.59;;;-4.28;100.00
47761;BME280;33524;55.434;38.520;2022-12-18T00:47:39;99610.38;;;-4.31;100.00
47761;BME280;33524;55.434;38.520;2022-12-18T00:50:08;99609.56;;;-4.70;100.00
47761;BME280;33524;55.434;38.520;2022-12-18T00:52:36;99590.50;;;-4.58;100.00
47761;BME280;33524;55.434;38.520;2022-12-18T00:55:04;99586.66;;;-5.17;100.00
47761;BME280;33524;55.434;38.520;2022-12-18T00:57:33;99578.97;;;-5.17;100.00
47761;BME280;33524;55.434;38.520;2022-12-18T01:00:02;99578.91;;;-5.14;100.00
47761;BME280;33524;55.434;38.520;2022-12-18T01:02:31;99566.66;;;-4.63;100.00
47761;BME280;33524;55.434;38.520;2022-12-18T01:04:59;99566.16;;;-4.42;100.00
47761;BME280;33524;55.434;38.520;2022-12-18T01:07:29;99553.72;;;-4.96;100.00
47761;BME280;33524;55.434;38.520;2022-12-18T01:09:57;99534.44;;;-5.13;100.00
47761;BME280;33524;55.434;38.520;2022-12-18T01:12:26;99544.22;;;-4.21;100.00
47761;BME280;33524;55.434;38.520;2022-12-18T01:14:53;99530.69;;;-4.60;100.00
47761;BME280;33524;55.434;38.520;2022-12-18T01:17:21;99526.56;;;-4.33;99.29
47761;BME280;33524;55.434;38.520;2022-12-18T01:19:50;99520.72;;;-4.73;100.00
47761;BME280;33524;55.434;38.520;2022-12-18T01:22:17;99512.28;;;-4.11;99.96
47761;BME280;33524;55.434;38.520;2022-12-18T01:24:48;99508.56;;;-5.02;99.20
47761;BME280;33524;55.434;38.520;2022-12-18T01:27:17;99497.81;;;-5.18;99.75
47761;BME280;33524;55.434;38.520;2022-12-18T01:29:45;99488.09;;;-5.03;100.00
47761;BME280;33524;55.434;38.520;2022-12-18T01:32:13;99491.16;;;-5.25;100.00
47761;BME280;33524;55.434;38.520;2022-12-18T01:34:41;99477.44;;;-4.87;100.00
47761;BME280;33524;55.434;38.520;2022-12-18T01:37:09;99477.53;;;-4.91;99.89
47761;BME280;33524;55.434;38.520;2022-12-18T01:39:37;99468.72;;;-4.79;100.00
47761;BME280;33524;55.434;38.520;2022-12-18T01:42:13;99477.94;;;-5.08;100.00
47761;BME280;33524;55.434;38.520;2022-12-18T01:47:55;99468.94;;;-5.24;99.96
47761;BME280;33524;55.434;38.520;2022-12-18T01:50:33;99461.63;;;-4.37;100.00
47761;BME280;33524;55.434;38.520;2022-12-18T01:55:54;99467.06;;;-5.18;99.14
47761;BME280;33524;55.434;38.520;2022-12-18T01:58:41;99461.56;;;-5.02;100.00
47761;BME280;33524;55.434;38.520;2022-12-18T02:01:12;99463.16;;;-5.34;99.66
47761;BME280;33524;55.434;38.520;2022-12-18T02:03:44;99471.59;;;-4.93;98.99
47761;BME280;33524;55.434;38.520;2022-12-18T02:06:32;99473.09;;;-5.20;99.18
47761;BME280;33524;55.434;38.520;2022-12-18T02:09:15;99473.72;;;-4.75;99.81
47761;BME280;33524;55.434;38.520;2022-12-18T02:14:40;99473.28;;;-5.30;99.95
47761;BME280;33524;55.434;38.520;2022-12-18T02:17:23;99461.28;;;-4.56;98.23
47761;BME280;33524;55.434;38.520;2022-12-18T02:28:11;99417.31;;;-5.11;98.13
47761;BME280;33524;55.434;38.520;2022-12-18T02:30:47;99422.88;;;-4.93;99.17
47761;BME280;33524;55.434;38.520;2022-12-18T02:33:19;99440.59;;;-5.18;98.45
47761;BME280;33524;55.434;38.520;2022-12-18T02:35:52;99451.78;;;-4.87;99.16
47761;BME280;33524;55.434;38.520;2022-12-18T02:38:23;99447.81;;;-5.36;98.57
47761;BME280;33524;55.434;38.520;2022-12-18T02:40:53;99448.28;;;-5.56;99.11
47761;BME280;33524;55.434;38.520;2022-12-18T02:43:22;99446.22;;;-4.37;99.26
47761;BME280;33524;55.434;38.520;2022-12-18T02:45:56;99445.37;;;-5.04;97.95
47761;BME280;33524;55.434;38.520;2022-12-18T02:48:33;99444.25;;;-5.29;98.79
47761;BME280;33524;55.434;38.520;2022-12-18T02:54:09;99442.47;;;-5.27;97.61
47761;BME280;33524;55.434;38.520;2022-12-18T02:56:45;99432.22;;;-5.64;98.81
47761;BME280;33524;55.434;38.520;2022-12-18T02:59:30;99427.22;;;-5.70;99.38
47761;BME280;33524;55.434;38.520;2022-12-18T03:02:21;99427.00;;;-5.59;99.71
47761;BME280;33524;55.434;38.520;2022-12-18T03:05:07;99452.44;;;-5.52;99.87
47761;BME280;33524;55.434;38.520;2022-12-18T03:07:57;99429.31;;;-5.13;100.00
47761;BME280;33524;55.434;38.520;2022-12-18T03:10:30;99448.84;;;-5.44;99.26
47761;BME280;33524;55.434;38.520;2022-12-18T03:13:12;99449.25;;;-5.24;98.92
47761;BME280;33524;55.434;38.520;2022-12-18T03:15:45;99458.91;;;-4.98;98.66
47761;BME280;33524;55.434;38.520;2022-12-18T03:18:20;99446.53;;;-5.18;98.86
47761;BME280;33524;55.434;38.520;2022-12-18T03:20:53;99440.91;;;-5.34;98.77
47761;BME280;33524;55.434;38.520;2022-12-18T03:23:27;99445.19;;;-4.97;99.08
47761;BME280;33524;55.434;38.520;2022-12-18T03:26:01;99446.91;;;-5.33;98.03
47761;BME280;33524;55.434;38.520;2022-12-18T03:28:40;99457.97;;;-5.31;98.49
47761;BME280;33524;55.434;38.520;2022-12-18T03:31:12;99457.56;;;-5.52;98.58
47761;BME280;33524;55.434;38.520;2022-12-18T03:33:46;99452.09;;;-5.77;98.59
47761;BME280;33524;55.434;38.520;2022-12-18T03:36:15;99431.28;;;-5.60;98.74
47761;BME280;33524;55.434;38.520;2022-12-18T03:38:43;99443.34;;;-5.67;98.80
47761;BME280;33524;55.434;38.520;2022-12-18T03:41:26;99447.59;;;-5.64;98.76
47761;BME280;33524;55.434;38.520;2022-12-18T03:46:41;99449.28;;;-5.64;98.22
47761;BME280;33524;55.434;38.520;2022-12-18T03:49:26;99453.16;;;-5.85;98.40
47761;BME280;33524;55.434;38.520;2022-12-18T03:52:17;99438.50;;;-5.79;98.81
47761;BME280;33524;55.434;38.520;2022-12-18T03:54:46;99443.00;;;-5.90;98.51
47761;BME280;33524;55.434;38.520;2022-12-18T03:57:21;99447.16;;;-5.84;98.25
47761;BME280;33524;55.434;38.520;2022-12-18T03:59:55;99454.09;;;-5.90;98.40
47761;BME280;33524;55.434;38.520;2022-12-18T04:02:24;99445.88;;;-6.04;98.18
47761;BME280;33524;55.434;38.520;2022-12-18T04:04:57;99455.34;;;-5.69;98.50
47761;BME280;33524;55.434;38.520;2022-12-18T04:07:29;99456.16;;;-5.67;98.42
47761;BME280;33524;55.434;38.520;2022-12-18T04:09:58;99455.31;;;-5.67;97.93
47761;BME280;33524;55.434;38.520;2022-12-18T04:12:30;99451.13;;;-4.95;99.27
47761;BME280;33524;55.434;38.520;2022-12-18T04:15:02;99457.16;;;-5.72;97.20
47761;BME280;33524;55.434;38.520;2022-12-18T04:17:30;99459.06;;;-5.41;97.80
47761;BME280;33524;55.434;38.520;2022-12-18T04:19:58;99466.06;;;-5.92;97.69
47761;BME280;33524;55.434;38.520;2022-12-18T04:22:26;99457.31;;;-5.80;98.34
47761;BME280;33524;55.434;38.520;2022-12-18T04:24:59;99485.13;;;-6.03;98.42
47761;BME280;33524;55.434;38.520;2022-12-18T04:27:29;99479.31;;;-6.12;98.72
47761;BME280;33524;55.434;38.520;2022-12-18T04:29:58;99491.94;;;-6.02;99.25
47761;BME280;33524;55.434;38.520;2022-12-18T04:32:26;99482.47;;;-5.99;99.72
47761;BME280;33524;55.434;38.520;2022-12-18T04:34:55;99485.84;;;-5.95;99.58
47761;BME280;33524;55.434;38.520;2022-12-18T04:37:23;99496.25;;;-6.06;99.46
47761;BME280;33524;55.434;38.520;2022-12-18T04:39:51;99494.69;;;-6.12;99.43
47761;BME280;33524;55.434;38.520;2022-12-18T04:42:20;99489.50;;;-6.10;99.63
47761;BME280;33524;55.434;38.520;2022-12-18T04:44:48;99482.87;;;-6.20;99.53
47761;BME280;33524;55.434;38.520;2022-12-18T04:47:16;99503.13;;;-6.08;99.43
47761;BME280;33524;55.434;38.520;2022-12-18T04:49:44;99500.63;;;-6.11;99.22
47761;BME280;33524;55.434;38.520;2022-12-18T04:52:12;99508.44;;;-6.17;99.30
47761;BME280;33524;55.434;38.520;2022-12-18T04:54:40;99515.00;;;-6.04;99.36
47761;BME280;33524;55.434;38.520;2022-12-18T04:57:08;99516.84;;;-6.12;98.83
47761;BME280;33524;55.434;38.520;2022-12-18T04:59:36;99524.31;;;-6.00;99.02
47761;BME280;33524;55.434;38.520;2022-12-18T05:02:04;99525.75;;;-5.88;98.94
47761;BME280;33524;55.434;38.520;2022-12-18T05:04:32;99510.56;;;-5.54;99.31
47761;BME280;33524;55.434;38.520;2022-12-18T05:07:00;99543.56;;;-6.27;97.78
47761;BME280;33524;55.434;38.520;2022-12-18T05:09:28;99566.56;;;-6.24;98.15
47761;BME280;33524;55.434;38.520;2022-12-18T05:11:57;99573.47;;;-6.31;98.00
47761;BME280;33524;55.434;38.520;2022-12-18T05:14:24;99577.75;;;-6.31;97.83
47761;BME280;33524;55.434;38.520;2022-12-18T05:16:52;99567.63;;;-6.37;97.92
47761;BME280;33524;55.434;38.520;2022-12-18T05:19:28;99572.91;;;-5.97;98.37
47761;BME280;33524;55.434;38.520;2022-12-18T05:21:55;99552.03;;;-6.23;97.83
47761;BME280;33524;55.434;38.520;2022-12-18T05:24:23;99576.84;;;-6.29;97.78
47761;BME280;33524;55.434;38.520;2022-12-18T05:26:52;99571.75;;;-6.29;97.82
47761;BME280;33524;55.434;38.520;2022-12-18T05:29:20;99599.66;;;-6.15;97.89
47761;BME280;33524;55.434;38.520;2022-12-18T05:31:47;99604.09;;;-6.24;97.18
47761;BME280;33524;55.434;38.520;2022-12-18T05:34:16;99609.38;;;-6.34;97.29
47761;BME280;33524;55.434;38.520;2022-12-18T05:36:43;99601.69;;;-6.32;97.32
47761;BME280;33524;55.434;38.520;2022-12-18T05:39:11;99621.97;;;-6.21;97.54
47761;BME280;33524;55.434;38.520;2022-12-18T05:41:40;99618.69;;;-6.31;97.35
47761;BME280;33524;55.434;38.520;2022-12-18T05:44:09;99623.91;;;-6.37;96.94
47761;BME280;33524;55.434;38.520;2022-12-18T05:46:36;99627.37;;;-6.40;96.94
47761;BME280;33524;55.434;38.520;2022-12-18T05:49:05;99628.13;;;-6.33;96.99
47761;BME280;33524;55.434;38.520;2022-12-18T05:51:32;99627.19;;;-6.27;96.92
47761;BME280;33524;55.434;38.520;2022-12-18T05:54:00;99631.56;;;-6.36;96.92
47761;BME280;33524;55.434;38.520;2022-12-18T05:56:28;99633.13;;;-6.27;96.95
47761;BME280;33524;55.434;38.520;2022-12-18T05:58:56;99635.78;;;-6.32;96.58
47761;BME280;33524;55.434;38.520;2022-12-18T06:01:26;99646.84;;;-6.31;96.58
47761;BME280;33524;55.434;38.520;2022-12-18T06:03:55;99651.13;;;-6.32;96.46
47761;BME280;33524;55.434;38.520;2022-12-18T06:06:25;99652.91;;;-6.37;96.14
47761;BME280;33524;55.434;38.520;2022-12-18T06:08:54;99652.03;;;-6.36;95.91
47761;BME280;33524;55.434;38.520;2022-12-18T06:11:25;99649.44;;;-6.33;95.87
47761;BME280;33524;55.434;38.520;2022-12-18T06:13:55;99652.16;;;-6.43;95.71
47761;BME280;33524;55.434;38.520;2022-12-18T06:16:27;99651.97;;;-6.31;95.82
47761;BME280;33524;55.434;38.520;2022-12-18T06:18:59;99666.69;;;-6.45;95.59
47761;BME280;33524;55.434;38.520;2022-12-18T06:21:28;99660.44;;;-6.27;95.63
47761;BME280;33524;55.434;38.520;2022-12-18T06:23:57;99663.31;;;-6.47;95.49
47761;BME280;33524;55.434;38.520;2022-12-18T06:26:25;99662.09;;;-6.23;95.72
47761;BME280;33524;55.434;38.520;2022-12-18T06:28:55;99663.31;;;-6.47;95.16
47761;BME280;33524;55.434;38.520;2022-12-18T06:31:23;99668.41;;;-6.47;95.46
47761;BME280;33524;55.434;38.520;2022-12-18T06:33:52;99664.28;;;-6.56;95.52
47761;BME280;33524;55.434;38.520;2022-12-18T06:36:20;99669.34;;;-6.53;95.54
47761;BME280;33524;55.434;38.520;2022-12-18T06:38:48;99679.41;;;-6.41;95.44
47761;BME280;33524;55.434;38.520;2022-12-18T06:41:18;99691.25;;;-6.34;95.48
47761;BME280;33524;55.434;38.520;2022-12-18T06:43:47;99698.28;;;-6.48;95.02
47761;BME280;33524;55.434;38.520;2022-12-18T06:46:15;99715.31;;;-6.47;94.69
47761;BME280;33524;55.434;38.520;2022-12-18T06:48:46;99710.09;;;-6.39;94.76
47761;BME280;33524;55.434;38.520;2022-12-18T06:51:23;99720.31;;;-6.39;94.54
47761;BME280;33524;55.434;38.520;2022-12-18T06:53:51;99727.00;;;-6.31;94.59
47761;BME280;33524;55.434;38.520;2022-12-18T06:56:23;99730.28;;;-6.19;94.44
47761;BME280;33524;55.434;38.520;2022-12-18T06:58:51;99732.84;;;-6.21;94.02
47761;BME280;33524;55.434;38.520;2022-12-18T07:01:22;99739.44;;;-6.06;93.55
47761;BME280;33524;55.434;38.520;2022-12-18T07:03:55;99744.75;;;-6.17;93.46
47761;BME280;33524;55.434;38.520;2022-12-18T07:06:25;99749.91;;;-6.20;93.62
47761;BME280;33524;55.434;38.520;2022-12-18T07:08:53;99749.06;;;-6.20;93.36
47761;BME280;33524;55.434;38.520;2022-12-18T07:11:23;99764.28;;;-6.11;93.60
47761;BME280;33524;55.434;38.520;2022-12-18T07:13:52;99772.13;;;-6.22;92.86
47761;BME280;33524;55.434;38.520;2022-12-18T07:16:26;99781.53;;;-6.24;92.71
47761;BME280;33524;55.434;38.520;2022-12-18T07:18:56;99766.09;;;-6.18;93.03
47761;BME280;33524;55.434;38.520;2022-12-18T07:21:24;99787.84;;;-5.91;92.75
47761;BME280;33524;55.434;38.520;2022-12-18T07:23:52;99794.09;;;-6.07;92.67
47761;BME280;33524;55.434;38.520;2022-12-18T07:26:21;99803.13;;;-5.84;92.21
47761;BME280;33524;55.434;38.520;2022-12-18T07:28:49;99808.44;;;-5.95;92.03
47761;BME280;33524;55.434;38.520;2022-12-18T07:31:20;99816.97;;;-5.95;92.17
47761;BME280;33524;55.434;38.520;2022-12-18T07:33:49;99814.59;;;-6.07;91.53
47761;BME280;33524;55.434;38.520;2022-12-18T07:36:18;99827.22;;;-5.95;92.07
47761;BME280;33524;55.434;38.520;2022-12-18T07:38:49;99841.94;;;-6.12;91.37
47761;BME280;33524;55.434;38.520;2022-12-18T07:41:20;99839.38;;;-6.11;91.83
47761;BME280;33524;55.434;38.520;2022-12-18T07:43:48;99840.94;;;-6.02;91.65
47761;BME280;33524;55.434;38.520;2022-12-18T07:46:19;99839.19;;;-5.97;91.73
47761;BME280;33524;55.434;38.520;2022-12-18T07:48:47;99850.25;;;-5.95;90.91
47761;BME280;33524;55.434;38.520;2022-12-18T07:51:19;99848.69;;;-6.03;90.88
47761;BME280;33524;55.434;38.520;2022-12-18T07:53:47;99851.19;;;-6.02;91.11
47761;BME280;33524;55.434;38.520;2022-12-18T07:56:22;99839.72;;;-5.78;91.32
47761;BME280;33524;55.434;38.520;2022-12-18T07:58:56;99845.88;;;-5.90;90.72
47761;BME280;33524;55.434;38.520;2022-12-18T08:01:25;99853.38;;;-5.79;90.68
47761;BME280;33524;55.434;38.520;2022-12-18T08:03:53;99860.88;;;-5.63;90.61
47761;BME280;33524;55.434;38.520;2022-12-18T08:06:23;99845.84;;;-5.86;89.78
47761;BME280;33524;55.434;38.520;2022-12-18T08:08:52;99872.31;;;-5.88;89.81
47761;BME280;33524;55.434;38.520;2022-12-18T08:11:22;99883.56;;;-5.98;90.05
47761;BME280;33524;55.434;38.520;2022-12-18T08:13:51;99889.41;;;-5.90;89.94
47761;BME280;33524;55.434;38.520;2022-12-18T08:16:20;99890.62;;;-6.14;90.19
47761;BME280;33524;55.434;38.520;2022-12-18T08:18:49;99901.59;;;-6.05;90.18
47761;BME280;33524;55.434;38.520;2022-12-18T08:21:20;99893.81;;;-5.98;90.45
47761;BME280;33524;55.434;38.520;2022-12-18T08:23:52;99892.69;;;-5.78;90.24
47761;BME280;33524;55.434;38.520;2022-12-18T08:26:20;99892.75;;;-5.84;89.60
47761;BME280;33524;55.434;38.520;2022-12-18T08:28:49;99892.13;;;-5.99;89.38
47761;BME280;33524;55.434;38.520;2022-12-18T08:31:18;99903.84;;;-5.85;89.68
47761;BME280;33524;55.434;38.520;2022-12-18T08:33:51;99905.66;;;-5.91;89.35
47761;BME280;33524;55.434;38.520;2022-12-18T08:36:22;99918.88;;;-5.59;89.09
47761;BME280;33524;55.434;38.520;2022-12-18T08:38:51;99919.63;;;-5.51;89.47
47761;BME280;33524;55.434;38.520;2022-12-18T08:41:19;99929.28;;;-5.72;88.15
47761;BME280;33524;55.434;38.520;2022-12-18T08:43:47;99937.12;;;-5.84;89.04
47761;BME280;33524;55.434;38.520;2022-12-18T08:46:38;99935.69;;;-6.02;88.64
47761;BME280;33524;55.434;38.520;2022-12-18T08:49:08;99962.22;;;-6.09;89.02
47761;BME280;33524;55.434;38.520;2022-12-18T08:51:37;99970.69;;;-6.01;89.25
47761;BME280;33524;55.434;38.520;2022-12-18T08:54:06;99957.97;;;-6.10;89.27
47761;BME280;33524;55.434;38.520;2022-12-18T08:56:34;99968.19;;;-6.09;89.54
47761;BME280;33524;55.434;38.520;2022-12-18T08:59:02;99977.53;;;-6.03;89.81
47761;BME280;33524;55.434;38.520;2022-12-18T09:01:30;99986.03;;;-6.01;89.37
47761;BME280;33524;55.434;38.520;2022-12-18T09:03:59;99978.44;;;-6.07;89.42
47761;BME280;33524;55.434;38.520;2022-12-18T09:06:27;99979.28;;;-6.08;89.44
47761;BME280;33524;55.434;38.520;2022-12-18T09:08:55;99964.78;;;-6.07;89.80
47761;BME280;33524;55.434;38.520;2022-12-18T09:11:26;99963.66;;;-5.86;89.91
47761;BME280;33524;55.434;38.520;2022-12-18T09:13:55;99959.28;;;-5.80;89.47
47761;BME280;33524;55.434;38.520;2022-12-18T09:16:24;99953.19;;;-5.71;89.70
47761;BME280;33524;55.434;38.520;2022-12-18T09:19:00;99960.19;;;-5.84;89.43
47761;BME280;33524;55.434;38.520;2022-12-18T09:21:31;99962.16;;;-6.03;89.11
47761;BME280;33524;55.434;38.520;2022-12-18T09:24:04;99959.53;;;-5.95;89.45
47761;BME280;33524;55.434;38.520;2022-12-18T09:26:35;99969.84;;;-6.03;89.35
47761;BME280;33524;55.434;38.520;2022-12-18T09:29:05;99977.44;;;-5.97;89.31
47761;BME280;33524;55.434;38.520;2022-12-18T09:31:35;99985.97;;;-5.95;89.59
47761;BME280;33524;55.434;38.520;2022-12-18T09:34:03;99992.00;;;-6.02;89.10
47761;BME280;33524;55.434;38.520;2022-12-18T09:36:33;99995.41;;;-6.00;89.16
47761;BME280;33524;55.434;38.520;2022-12-18T09:39:01;100004.69;;;-5.94;88.84
47761;BME280;33524;55.434;38.520;2022-12-18T09:47:05;100023.53;;;-5.97;88.35
47761;BME280;33524;55.434;38.520;2022-12-18T09:49:59;100032.97;;;-6.00;88.87
47761;BME280;33524;55.434;38.520;2022-12-18T09:52:45;100030.09;;;-5.77;88.29
47761;BME280;33524;55.434;38.520;2022-12-18T09:55:34;100026.41;;;-5.52;88.39
47761;BME280;33524;55.434;38.520;2022-12-18T10:00:55;100031.97;;;-5.92;88.41
47761;BME280;33524;55.434;38.520;2022-12-18T10:03:23;100043.22;;;-6.02;88.56
47761;BME280;33524;55.434;38.520;2022-12-18T10:05:54;100039.03;;;-6.07;89.45
47761;BME280;33524;55.434;38.520;2022-12-18T10:08:33;100042.44;;;-6.07;89.04
47761;BME280;33524;55.434;38.520;2022-12-18T10:14:29;100033.63;;;-5.84;88.82
47761;BME280;33524;55.434;38.520;2022-12-18T10:17:08;100040.66;;;-6.02;89.02
47761;BME280;33524;55.434;38.520;2022-12-18T10:27:52;100069.44;;;-5.81;90.09
47761;BME280;33524;55.434;38.520;2022-12-18T10:30:23;100065.22;;;-5.87;89.39
47761;BME280;33524;55.434;38.520;2022-12-18T10:32:51;100066.09;;;-5.86;89.78
47761;BME280;33524;55.434;38.520;2022-12-18T10:35:25;100066.12;;;-5.91;89.07
47761;BME280;33524;55.434;38.520;2022-12-18T10:38:07;100084.00;;;-5.86;89.37
47761;BME280;33524;55.434;38.520;2022-12-18T10:40:50;100086.75;;;-6.02;89.00
47761;BME280;33524;55.434;38.520;2022-12-18T10:43:22;100086.75;;;-6.02;89.72
47761;BME280;33524;55.434;38.520;2022-12-18T10:54:01;100103.62;;;-5.85;90.53
47761;BME280;33524;55.434;38.520;2022-12-18T10:56:36;100109.56;;;-5.82;90.46
47761;BME280;33524;55.434;38.520;2022-12-18T10:59:09;100119.75;;;-5.77;90.85
47761;BME280;33524;55.434;38.520;2022-12-18T11:01:53;100118.09;;;-5.81;90.91
47761;BME280;33524;55.434;38.520;2022-12-18T11:04:32;100124.25;;;-5.95;90.99
47761;BME280;33524;55.434;38.520;2022-12-18T11:07:05;100137.62;;;-5.70;90.96
47761;BME280;33524;55.434;38.520;2022-12-18T11:09:39;100141.03;;;-5.69;91.02
47761;BME280;33524;55.434;38.520;2022-12-18T11:17:20;100157.41;;;-5.84;91.27
47761;BME280;33524;55.434;38.520;2022-12-18T11:19:54;100158.22;;;-5.80;91.92
47761;BME280;33524;55.434;38.520;2022-12-18T11:22:30;100150.56;;;-5.83;91.99
47761;BME280;33524;55.434;38.520;2022-12-18T11:25:19;100147.22;;;-5.92;92.23
47761;BME280;33524;55.434;38.520;2022-12-18T11:28:05;100143.75;;;-5.88;92.35
47761;BME280;33524;55.434;38.520;2022-12-18T11:36:59;100152.47;;;-6.04;92.95
47761;BME280;33524;55.434;38.520;2022-12-18T11:39:35;100165.22;;;-5.98;93.17
47761;BME280;33524;55.434;38.520;2022-12-18T11:42:39;100168.72;;;-6.08;93.34
47761;BME280;33524;55.434;38.520;2022-12-18T11:48:00;100173.88;;;-6.11;93.66
47761;BME280;33524;55.434;38.520;2022-12-18T11:53:10;100174.72;;;-6.07;93.85
47761;BME280;33524;55.434;38.520;2022-12-18T12:01:19;100190.03;;;-6.04;94.12
47761;BME280;33524;55.434;38.520;2022-12-18T12:10:10;100207.97;;;-6.06;94.82
47761;BME280;33524;55.434;38.520;2022-12-18T12:16:16;100203.56;;;-5.90;95.25
47761;BME280;33524;55.434;38.520;2022-12-18T12:19:07;100214.75;;;-6.02;94.71
47761;BME280;33524;55.434;38.520;2022-12-18T12:36:47;100234.56;;;-6.25;95.78
47761;BME280;33524;55.434;38.520;2022-12-18T12:39:25;100243.13;;;-6.28;95.98
47761;BME280;33524;55.434;38.520;2022-12-18T12:41:56;100250.78;;;-6.25;96.03
47761;BME280;33524;55.434;38.520;2022-12-18T12:44:47;100252.53;;;-6.32;96.26
47761;BME280;33524;55.434;38.520;2022-12-18T12:47:39;100266.81;;;-5.98;96.40
47761;BME280;33524;55.434;38.520;2022-12-18T12:50:17;100268.69;;;-6.25;95.74
47761;BME280;33524;55.434;38.520;2022-12-18T12:52:54;100282.34;;;-6.29;96.17
47761;BME280;33524;55.434;38.520;2022-12-18T12:55:28;100277.28;;;-6.35;96.37
47761;BME280;33524;55.434;38.520;2022-12-18T12:58:16;100288.28;;;-6.21;96.70
47761;BME280;33524;55.434;38.520;2022-12-18T13:03:55;100283.12;;;-6.16;96.77
47761;BME280;33524;55.434;38.520;2022-12-18T13:06:46;100301.09;;;-6.19;96.74
47761;BME280;33524;55.434;38.520;2022-12-18T13:09:16;100308.72;;;-6.13;96.79
47761;BME280;33524;55.434;38.520;2022-12-18T13:11:46;100314.69;;;-6.11;96.73
47761;BME280;33524;55.434;38.520;2022-12-18T13:14:36;100315.59;;;-6.23;97.01
47761;BME280;33524;55.434;38.520;2022-12-18T13:17:27;100324.13;;;-6.19;97.05
47761;BME280;33524;55.434;38.520;2022-12-18T13:20:09;100321.47;;;-6.04;96.36
47761;BME280;33524;55.434;38.520;2022-12-18T13:22:45;100327.56;;;-6.26;96.58
47761;BME280;33524;55.434;38.520;2022-12-18T13:25:37;100334.38;;;-6.25;96.79
47761;BME280;33524;55.434;38.520;2022-12-18T13:28:10;100336.06;;;-6.15;96.31
47761;BME280;33524;55.434;38.520;2022-12-18T13:39:20;100360.03;;;-6.38;96.77
47761;BME280;33524;55.434;38.520;2022-12-18T13:44:39;100366.88;;;-6.44;96.87
47761;BME280;33524;55.434;38.520;2022-12-18T13:47:34;100369.34;;;-6.20;96.90
47761;BME280;33524;55.434;38.520;2022-12-18T13:50:24;100380.53;;;-6.47;96.90
47761;BME280;33524;55.434;38.520;2022-12-18T13:53:03;100384.78;;;-6.43;97.12
47761;BME280;33524;55.434;38.520;2022-12-18T13:55:33;100393.28;;;-6.41;97.31
47761;BME280;33524;55.434;38.520;2022-12-18T13:58:05;100398.44;;;-6.44;97.21
47761;BME280;33524;55.434;38.520;2022-12-18T14:00:34;100405.25;;;-6.47;97.35
47761;BME280;33524;55.434;38.520;2022-12-18T14:03:15;100410.37;;;-6.49;97.51
47761;BME280;33524;55.434;38.520;2022-12-18T14:05:54;100415.50;;;-6.46;97.74
47761;BME280;33524;55.434;38.520;2022-12-18T14:08:23;100424.03;;;-6.50;97.64
47761;BME280;33524;55.434;38.520;2022-12-18T14:10:53;100428.28;;;-6.47;97.78
47761;BME280;33524;55.434;38.520;2022-12-18T14:13:28;100435.97;;;-6.38;97.36
47761;BME280;33524;55.434;38.520;2022-12-18T14:15:57;100429.12;;;-6.39;97.65
47761;BME280;33524;55.434;38.520;2022-12-18T14:21:21;100445.34;;;-6.51;97.97
47761;BME280;33524;55.434;38.520;2022-12-18T14:24:06;100444.53;;;-6.56;97.95
47761;BME280;33524;55.434;38.520;2022-12-18T14:26:40;100452.19;;;-6.53;98.09
47761;BME280;33524;55.434;38.520;2022-12-18T14:29:21;100460.72;;;-6.50;98.32
47761;BME280;33524;55.434;38.520;2022-12-18T14:32:09;100467.53;;;-6.50;98.20
47761;BME280;33524;55.434;38.520;2022-12-18T14:34:53;100459.03;;;-6.57;98.08
47761;BME280;33524;55.434;38.520;2022-12-18T14:37:26;100459.00;;;-6.46;97.82
47761;BME280;33524;55.434;38.520;2022-12-18T14:40:00;100468.38;;;-6.37;97.89
47761;BME280;33524;55.434;38.520;2022-12-18T14:42:36;100459.84;;;-6.53;97.76
47761;BME280;33524;55.434;38.520;2022-12-18T14:45:35;100469.25;;;-6.44;97.75
47761;BME280;33524;55.434;38.520;2022-12-18T14:48:16;100476.94;;;-6.51;97.60
47761;BME280;33524;55.434;38.520;2022-12-18T14:51:15;100476.09;;;-6.57;97.54
47761;BME280;33524;55.434;38.520;2022-12-18T14:53:48;100486.31;;;-6.60;97.67
47761;BME280;33524;55.434;38.520;2022-12-18T14:56:26;100492.25;;;-6.34;97.32
47761;BME280;33524;55.434;38.520;2022-12-18T14:59:06;100491.44;;;-6.60;97.49
47761;BME280;33524;55.434;38.520;2022-12-18T15:01:56;100497.38;;;-6.60;97.80
47761;BME280;33524;55.434;38.520;2022-12-18T15:04:38;100507.66;;;-6.69;97.97
47761;BME280;33524;55.434;38.520;2022-12-18T15:07:21;100508.50;;;-6.65;98.37
47761;BME280;33524;55.434;38.520;2022-12-18T15:10:04;100506.78;;;-6.66;98.44